sensor_id;sensor_type;location;lat;lon;timestamp;pressure;altitude;pressure_sealevel;temperature;humidity
19005;BME280;9635;52.078;8.648;2023-02-13T00:04:27;102663.56;;;7.46;77.63
19005;BME280;9635;52.078;8.648;2023-02-13T00:09:31;102658.22;;;7.46;77.14
19005;BME280;9635;52.078;8.648;2023-02-13T00:14:34;102647.66;;;7.42;76.78
19005;BME280;9635;52.078;8.648;2023-02-13T00:19:37;102648.63;;;7.39;76.59
19005;BME280;9635;52.078;8.648;2023-02-13T00:24:41;102654.66;;;7.46;76.74
19005;BME280;9635;52.078;8.648;2023-02-13T00:29:44;102644.06;;;7.43;76.34
19005;BME280;9635;52.078;8.648;2023-02-13T00:34:47;102654.13;;;7.35;76.25
19005;BME280;9635;52.078;8.648;2023-02-13T00:39:51;102649.69;;;7.34;76.35
19005;BME280;9635;52.078;8.648;2023-02-13T00:44:54;102645.19;;;7.36;76.61
19005;BME280;9635;52.078;8.648;2023-02-13T00:49:57;102643.47;;;7.33;76.35
19005;BME280;9635;52.078;8.648;2023-02-13T00:55:01;102643.38;;;7.36;76.38
19005;BME280;9635;52.078;8.648;2023-02-13T01:00:05;102647.22;;;7.27;76.08
19005;BME280;9635;52.078;8.648;2023-02-13T01:05:08;102652.63;;;7.26;76.07
19005;BME280;9635;52.078;8.648;2023-02-13T01:10:15;102647.38;;;7.23;76.14
19005;BME280;9635;52.078;8.648;2023-02-13T01:15:18;102641.16;;;7.22;76.32
19005;BME280;9635;52.078;8.648;2023-02-13T01:20:22;102642.13;;;7.20;76.09
19005;BME280;9635;52.078;8.648;2023-02-13T01:25:27;102640.28;;;7.22;76.14
19005;BME280;9635;52.078;8.648;2023-02-13T01:30:31;102631.31;;;7.23;76.07
19005;BME280;9635;52.078;8.648;2023-02-13T01:35:34;102633.22;;;7.19;75.84
19005;BME280;9635;52.078;8.648;2023-02-13T01:40:44;102629.84;;;7.13;75.48
19005;BME280;9635;52.078;8.648;2023-02-13T01:45:50;102628.88;;;7.15;75.32
19005;BME280;9635;52.078;8.648;2023-02-13T01:50:56;102628.13;;;7.10;75.18
19005;BME280;9635;52.078;8.648;2023-02-13T01:56:08;102637.94;;;7.11;75.18
19005;BME280;9635;52.078;8.648;2023-02-13T02:01:11;102621.78;;;7.14;75.04
19005;BME280;9635;52.078;8.648;2023-02-13T02:06:17;102611.00;;;7.17;75.01
19005;BME280;9635;52.078;8.648;2023-02-13T02:11:31;102618.09;;;7.18;75.06
19005;BME280;9635;52.078;8.648;2023-02-13T02:16:34;102613.56;;;7.20;74.75
19005;BME280;9635;52.078;8.648;2023-02-13T02:22:14;102617.19;;;7.19;74.62
19005;BME280;9635;52.078;8.648;2023-02-13T02:27:49;102610.59;;;7.01;75.00
19005;BME280;9635;52.078;8.648;2023-02-13T02:33:20;102613.25;;;7.03;75.10
19005;BME280;9635;52.078;8.648;2023-02-13T02:38:38;102615.72;;;7.09;74.86
19005;BME280;9635;52.078;8.648;2023-02-13T02:43:53;102611.88;;;7.18;74.54
19005;BME280;9635;52.078;8.648;2023-02-13T02:49:03;102598.47;;;7.19;74.26
19005;BME280;9635;52.078;8.648;2023-02-13T02:54:31;102592.31;;;7.16;74.28
19005;BME280;9635;52.078;8.648;2023-02-13T02:59:53;102594.13;;;7.15;74.27
19005;BME280;9635;52.078;8.648;2023-02-13T03:05:20;102587.97;;;7.13;74.30
19005;BME280;9635;52.078;8.648;2023-02-13T03:10:42;102588.94;;;7.11;74.55
19005;BME280;9635;52.078;8.648;2023-02-13T03:16:03;102581.94;;;7.06;74.51
19005;BME280;9635;52.078;8.648;2023-02-13T03:21:37;102578.44;;;7.04;74.71
19005;BME280;9635;52.078;8.648;2023-02-13T03:27:07;102568.00;;;6.97;75.31
19005;BME280;9635;52.078;8.648;2023-02-13T03:32:20;102570.56;;;7.00;75.44
19005;BME280;9635;52.078;8.648;2023-02-13T03:37:29;102577.66;;;7.01;75.39
19005;BME280;9635;52.078;8.648;2023-02-13T03:42:55;102577.72;;;6.99;75.61
19005;BME280;9635;52.078;8.648;2023-02-13T03:48:03;102584.75;;;7.02;75.51
19005;BME280;9635;52.078;8.648;2023-02-13T03:53:30;102583.06;;;6.99;75.79
19005;BME280;9635;52.078;8.648;2023-02-13T03:58:39;102586.00;;;6.90;76.05
19005;BME280;9635;52.078;8.648;2023-02-13T04:04:07;102587.78;;;6.91;76.03
19005;BME280;9635;52.078;8.648;2023-02-13T04:09:13;102588.75;;;6.89;76.06
19005;BME280;9635;52.078;8.648;2023-02-13T04:14:19;102596.78;;;6.85;76.19
19005;BME280;9635;52.078;8.648;2023-02-13T04:19:24;102601.34;;;6.82;76.40
19005;BME280;9635;52.078;8.648;2023-02-13T04:24:29;102597.72;;;6.84;76.07
19005;BME280;9635;52.078;8.648;2023-02-13T04:29:32;102601.31;;;6.83;75.72
19005;BME280;9635;52.078;8.648;2023-02-13T04:34:35;102601.34;;;6.82;75.99
19005;BME280;9635;52.078;8.648;2023-02-13T04:39:39;102598.66;;;6.83;75.52
19005;BME280;9635;52.078;8.648;2023-02-13T04:44:42;102589.91;;;6.78;75.32
19005;BME280;9635;52.078;8.648;2023-02-13T04:49:45;102587.50;;;6.69;75.19
19005;BME280;9635;52.078;8.648;2023-02-13T04:54:49;102584.84;;;6.69;74.87
19005;BME280;9635;52.078;8.648;2023-02-13T04:59:52;102580.53;;;6.63;74.85
19005;BME280;9635;52.078;8.648;2023-02-13T05:04:55;102584.00;;;6.67;74.66
19005;BME280;9635;52.078;8.648;2023-02-13T05:09:59;102577.63;;;6.71;74.31
19005;BME280;9635;52.078;8.648;2023-02-13T05:15:02;102576.84;;;6.69;74.29
19005;BME280;9635;52.078;8.648;2023-02-13T05:20:06;102582.06;;;6.72;74.16
19005;BME280;9635;52.078;8.648;2023-02-13T05:25:10;102581.81;;;6.80;73.85
19005;BME280;9635;52.078;8.648;2023-02-13T05:30:14;102589.84;;;6.80;73.82
19005;BME280;9635;52.078;8.648;2023-02-13T05:35:17;102592.66;;;6.75;73.80
19005;BME280;9635;52.078;8.648;2023-02-13T05:40:21;102585.66;;;6.71;73.71
19005;BME280;9635;52.078;8.648;2023-02-13T05:45:24;102594.50;;;6.73;73.83
19005;BME280;9635;52.078;8.648;2023-02-13T05:50:27;102599.88;;;6.72;73.77
19005;BME280;9635;52.078;8.648;2023-02-13T05:55:31;102600.69;;;6.75;73.83
19005;BME280;9635;52.078;8.648;2023-02-13T06:00:34;102608.69;;;6.75;73.75
19005;BME280;9635;52.078;8.648;2023-02-13T06:05:36;102604.31;;;6.73;73.77
19005;BME280;9635;52.078;8.648;2023-02-13T06:10:41;102603.56;;;6.68;73.80
19005;BME280;9635;52.078;8.648;2023-02-13T06:15:45;102611.72;;;6.63;73.70
19005;BME280;9635;52.078;8.648;2023-02-13T06:20:48;102616.19;;;6.62;74.12
19005;BME280;9635;52.078;8.648;2023-02-13T06:25:53;102622.31;;;6.66;74.05
19005;BME280;9635;52.078;8.648;2023-02-13T06:30:55;102630.31;;;6.66;73.94
19005;BME280;9635;52.078;8.648;2023-02-13T06:35:59;102621.50;;;6.64;74.13
19005;BME280;9635;52.078;8.648;2023-02-13T06:41:03;102624.19;;;6.62;74.10
19005;BME280;9635;52.078;8.648;2023-02-13T06:46:07;102630.72;;;6.52;74.66
19005;BME280;9635;52.078;8.648;2023-02-13T06:51:10;102631.38;;;6.60;74.63
19005;BME280;9635;52.078;8.648;2023-02-13T06:56:14;102632.34;;;6.58;74.84
19005;BME280;9635;52.078;8.648;2023-02-13T07:01:17;102635.94;;;6.57;74.88
19005;BME280;9635;52.078;8.648;2023-02-13T07:06:20;102637.66;;;6.58;74.91
19005;BME280;9635;52.078;8.648;2023-02-13T07:11:24;102629.72;;;6.56;74.88
19005;BME280;9635;52.078;8.648;2023-02-13T07:16:27;102635.09;;;6.55;75.10
19005;BME280;9635;52.078;8.648;2023-02-13T07:21:30;102642.28;;;6.84;75.93
19005;BME280;9635;52.078;8.648;2023-02-13T07:26:34;102636.44;;;7.01;74.69
19005;BME280;9635;52.078;8.648;2023-02-13T07:31:37;102643.38;;;7.08;74.32
19005;BME280;9635;52.078;8.648;2023-02-13T07:36:40;102644.03;;;7.16;73.67
19005;BME280;9635;52.078;8.648;2023-02-13T07:41:44;102649.06;;;7.25;73.66
19005;BME280;9635;52.078;8.648;2023-02-13T07:46:49;102644.13;;;7.41;73.04
19005;BME280;9635;52.078;8.648;2023-02-13T07:51:55;102644.84;;;7.46;72.63
19005;BME280;9635;52.078;8.648;2023-02-13T07:56:59;102642.66;;;7.31;72.45
19005;BME280;9635;52.078;8.648;2023-02-13T08:02:02;102648.31;;;7.22;72.93
19005;BME280;9635;52.078;8.648;2023-02-13T08:07:04;102646.69;;;7.16;73.40
19005;BME280;9635;52.078;8.648;2023-02-13T08:12:09;102653.88;;;7.14;73.49
19005;BME280;9635;52.078;8.648;2023-02-13T08:17:12;102654.94;;;7.09;73.67
19005;BME280;9635;52.078;8.648;2023-02-13T08:22:14;102655.06;;;7.04;73.70
19005;BME280;9635;52.078;8.648;2023-02-13T08:27:19;102646.63;;;7.18;73.76
19005;BME280;9635;52.078;8.648;2023-02-13T08:32:22;102645.00;;;7.12;73.86
19005;BME280;9635;52.078;8.648;2023-02-13T08:37:25;102651.78;;;7.24;74.03
19005;BME280;9635;52.078;8.648;2023-02-13T08:42:29;102646.91;;;7.38;73.82
19005;BME280;9635;52.078;8.648;2023-02-13T08:47:32;102651.72;;;7.54;73.63
19005;BME280;9635;52.078;8.648;2023-02-13T08:52:35;102649.94;;;7.54;73.08
19005;BME280;9635;52.078;8.648;2023-02-13T08:57:39;102652.44;;;7.60;72.79
19005;BME280;9635;52.078;8.648;2023-02-13T09:02:41;102656.31;;;7.50;72.35
19005;BME280;9635;52.078;8.648;2023-02-13T09:07:44;102654.75;;;7.43;72.55
19005;BME280;9635;52.078;8.648;2023-02-13T09:12:52;102655.47;;;7.48;72.45
19005;BME280;9635;52.078;8.648;2023-02-13T09:17:55;102665.69;;;7.63;71.73
19005;BME280;9635;52.078;8.648;2023-02-13T09:22:58;102668.03;;;7.74;71.98
19005;BME280;9635;52.078;8.648;2023-02-13T09:28:02;102657.13;;;7.80;71.07
19005;BME280;9635;52.078;8.648;2023-02-13T09:33:09;102651.94;;;8.01;71.17
19005;BME280;9635;52.078;8.648;2023-02-13T09:38:12;102661.31;;;8.14;70.75
19005;BME280;9635;52.078;8.648;2023-02-13T09:43:21;102660.94;;;8.25;70.49
19005;BME280;9635;52.078;8.648;2023-02-13T09:48:31;102653.50;;;8.33;69.81
19005;BME280;9635;52.078;8.648;2023-02-13T09:53:34;102658.75;;;8.36;69.43
19005;BME280;9635;52.078;8.648;2023-02-13T09:58:43;102667.63;;;8.38;68.81
19005;BME280;9635;52.078;8.648;2023-02-13T10:03:54;102674.09;;;8.31;68.86
19005;BME280;9635;52.078;8.648;2023-02-13T10:09:03;102670.06;;;8.44;69.29
19005;BME280;9635;52.078;8.648;2023-02-13T10:14:14;102659.34;;;8.44;68.99
19005;BME280;9635;52.078;8.648;2023-02-13T10:19:29;102655.50;;;8.53;68.34
19005;BME280;9635;52.078;8.648;2023-02-13T10:24:39;102661.38;;;8.64;68.10
19005;BME280;9635;52.078;8.648;2023-02-13T10:29:47;102657.84;;;8.62;67.50
19005;BME280;9635;52.078;8.648;2023-02-13T10:35:19;102664.19;;;8.59;67.36
19005;BME280;9635;52.078;8.648;2023-02-13T10:40:25;102666.38;;;8.73;66.92
19005;BME280;9635;52.078;8.648;2023-02-13T10:51:08;102662.34;;;8.85;65.69
19005;BME280;9635;52.078;8.648;2023-02-13T10:56:21;102662.34;;;8.85;65.80
19005;BME280;9635;52.078;8.648;2023-02-13T11:01:32;102653.84;;;8.74;66.41
19005;BME280;9635;52.078;8.648;2023-02-13T11:06:41;102645.44;;;9.06;66.34
19005;BME280;9635;52.078;8.648;2023-02-13T11:11:44;102651.91;;;9.24;65.11
19005;BME280;9635;52.078;8.648;2023-02-13T11:16:54;102640.97;;;9.29;63.97
19005;BME280;9635;52.078;8.648;2023-02-13T11:22:01;102645.34;;;9.54;64.05
19005;BME280;9635;52.078;8.648;2023-02-13T11:27:06;102641.50;;;9.61;62.07
19005;BME280;9635;52.078;8.648;2023-02-13T11:32:21;102633.72;;;9.55;62.08
19005;BME280;9635;52.078;8.648;2023-02-13T11:37:27;102635.50;;;9.32;62.93
19005;BME280;9635;52.078;8.648;2023-02-13T11:42:31;102632.75;;;9.12;63.30
19005;BME280;9635;52.078;8.648;2023-02-13T11:47:39;102621.84;;;9.38;63.82
19005;BME280;9635;52.078;8.648;2023-02-13T11:52:43;102615.72;;;9.57;63.58
19005;BME280;9635;52.078;8.648;2023-02-13T11:57:56;102615.94;;;9.72;62.09
19005;BME280;9635;52.078;8.648;2023-02-13T12:03:00;102623.44;;;9.64;61.11
19005;BME280;9635;52.078;8.648;2023-02-13T12:08:07;102619.72;;;9.90;60.95
19005;BME280;9635;52.078;8.648;2023-02-13T12:13:13;102607.28;;;9.66;60.50
19005;BME280;9635;52.078;8.648;2023-02-13T12:18:25;102611.94;;;9.83;60.96
19005;BME280;9635;52.078;8.648;2023-02-13T12:23:38;102598.69;;;10.21;60.17
19005;BME280;9635;52.078;8.648;2023-02-13T12:28:52;102584.41;;;10.78;59.65
19005;BME280;9635;52.078;8.648;2023-02-13T12:34:27;102584.47;;;10.77;57.98
19005;BME280;9635;52.078;8.648;2023-02-13T12:39:37;102578.41;;;10.34;58.61
19005;BME280;9635;52.078;8.648;2023-02-13T12:44:56;102575.59;;;10.16;59.80
19005;BME280;9635;52.078;8.648;2023-02-13T12:50:25;102571.91;;;10.19;59.72
19005;BME280;9635;52.078;8.648;2023-02-13T12:55:42;102555.84;;;10.95;58.32
19005;BME280;9635;52.078;8.648;2023-02-13T13:00:55;102549.19;;;11.92;55.59
19005;BME280;9635;52.078;8.648;2023-02-13T13:06:12;102529.25;;;14.29;49.67
19005;BME280;9635;52.078;8.648;2023-02-13T13:11:43;102517.09;;;14.65;47.37
19005;BME280;9635;52.078;8.648;2023-02-13T13:16:53;102520.50;;;13.81;49.14
19005;BME280;9635;52.078;8.648;2023-02-13T13:22:04;102515.53;;;15.30;46.22
19005;BME280;9635;52.078;8.648;2023-02-13T13:27:16;102517.06;;;15.74;44.44
19005;BME280;9635;52.078;8.648;2023-02-13T13:32:20;102513.16;;;15.90;44.35
19005;BME280;9635;52.078;8.648;2023-02-13T13:37:31;102505.69;;;15.81;43.59
19005;BME280;9635;52.078;8.648;2023-02-13T13:42:39;102508.00;;;15.35;44.86
19005;BME280;9635;52.078;8.648;2023-02-13T13:47:57;102507.53;;;15.28;44.77
19005;BME280;9635;52.078;8.648;2023-02-13T13:53:09;102509.91;;;14.78;46.02
19005;BME280;9635;52.078;8.648;2023-02-13T13:58:20;102516.91;;;14.54;46.08
19005;BME280;9635;52.078;8.648;2023-02-13T14:03:36;102504.16;;;14.42;46.75
19005;BME280;9635;52.078;8.648;2023-02-13T14:14:52;102488.47;;;13.61;48.00
19005;BME280;9635;52.078;8.648;2023-02-13T14:19:55;102489.22;;;13.63;48.11
19005;BME280;9635;52.078;8.648;2023-02-13T14:25:00;102481.25;;;13.76;47.88
19005;BME280;9635;52.078;8.648;2023-02-13T14:30:24;102487.63;;;14.03;47.37
19005;BME280;9635;52.078;8.648;2023-02-13T14:35:30;102481.75;;;13.82;47.73
19005;BME280;9635;52.078;8.648;2023-02-13T14:40:52;102477.88;;;13.72;48.15
19005;BME280;9635;52.078;8.648;2023-02-13T14:46:01;102476.59;;;13.63;47.70
19005;BME280;9635;52.078;8.648;2023-02-13T14:51:06;102474.50;;;13.38;48.29
19005;BME280;9635;52.078;8.648;2023-02-13T14:56:18;102477.84;;;13.58;48.82
19005;BME280;9635;52.078;8.648;2023-02-13T15:01:28;102465.50;;;13.08;49.10
19005;BME280;9635;52.078;8.648;2023-02-13T15:06:34;102467.34;;;12.91;50.31
19005;BME280;9635;52.078;8.648;2023-02-13T15:11:41;102467.88;;;12.98;50.11
19005;BME280;9635;52.078;8.648;2023-02-13T15:16:49;102460.97;;;13.08;49.66
19005;BME280;9635;52.078;8.648;2023-02-13T15:21:56;102458.94;;;12.66;50.26
19005;BME280;9635;52.078;8.648;2023-02-13T15:27:01;102454.16;;;12.55;51.04
19005;BME280;9635;52.078;8.648;2023-02-13T15:32:18;102447.47;;;12.62;50.87
19005;BME280;9635;52.078;8.648;2023-02-13T15:37:23;102446.31;;;12.50;51.04
19005;BME280;9635;52.078;8.648;2023-02-13T15:42:26;102453.22;;;12.07;52.09
19005;BME280;9635;52.078;8.648;2023-02-13T15:47:31;102450.66;;;11.70;52.98
19005;BME280;9635;52.078;8.648;2023-02-13T15:52:37;102448.09;;;11.17;54.44
19005;BME280;9635;52.078;8.648;2023-02-13T15:57:40;102445.19;;;10.66;56.25
19005;BME280;9635;52.078;8.648;2023-02-13T16:02:46;102436.28;;;10.28;57.30
19005;BME280;9635;52.078;8.648;2023-02-13T16:07:50;102439.03;;;9.88;58.55
19005;BME280;9635;52.078;8.648;2023-02-13T16:12:55;102447.34;;;9.41;60.08
19005;BME280;9635;52.078;8.648;2023-02-13T16:18:00;102441.06;;;9.00;61.11
19005;BME280;9635;52.078;8.648;2023-02-13T16:23:14;102441.53;;;8.67;62.72
19005;BME280;9635;52.078;8.648;2023-02-13T16:28:20;102436.94;;;8.47;63.27
19005;BME280;9635;52.078;8.648;2023-02-13T16:33:27;102445.84;;;8.24;64.12
19005;BME280;9635;52.078;8.648;2023-02-13T16:38:33;102438.34;;;8.10;64.64
19005;BME280;9635;52.078;8.648;2023-02-13T16:43:40;102445.16;;;7.95;65.67
19005;BME280;9635;52.078;8.648;2023-02-13T16:48:46;102449.38;;;7.78;65.90
19005;BME280;9635;52.078;8.648;2023-02-13T16:53:55;102455.34;;;7.61;66.61
19005;BME280;9635;52.078;8.648;2023-02-13T16:59:17;102456.38;;;7.57;66.78
19005;BME280;9635;52.078;8.648;2023-02-13T17:04:24;102454.06;;;7.46;66.95
19005;BME280;9635;52.078;8.648;2023-02-13T17:09:27;102455.22;;;7.39;67.06
19005;BME280;9635;52.078;8.648;2023-02-13T17:14:30;102468.97;;;7.28;67.43
19005;BME280;9635;52.078;8.648;2023-02-13T17:19:34;102468.34;;;7.20;67.80
19005;BME280;9635;52.078;8.648;2023-02-13T17:24:37;102475.53;;;7.18;68.01
19005;BME280;9635;52.078;8.648;2023-02-13T17:29:39;102473.84;;;7.15;68.10
19005;BME280;9635;52.078;8.648;2023-02-13T17:34:44;102471.47;;;7.06;68.27
19005;BME280;9635;52.078;8.648;2023-02-13T17:39:48;102478.78;;;7.01;68.42
19005;BME280;9635;52.078;8.648;2023-02-13T17:44:51;102468.28;;;6.95;68.74
19005;BME280;9635;52.078;8.648;2023-02-13T17:49:56;102470.25;;;6.90;68.82
19005;BME280;9635;52.078;8.648;2023-02-13T17:55:15;102461.59;;;6.80;69.21
19005;BME280;9635;52.078;8.648;2023-02-13T18:00:19;102459.09;;;6.75;69.39
19005;BME280;9635;52.078;8.648;2023-02-13T18:05:24;102453.13;;;6.67;69.24
19005;BME280;9635;52.078;8.648;2023-02-13T18:10:30;102460.72;;;6.51;69.65
19005;BME280;9635;52.078;8.648;2023-02-13T18:15:35;102464.34;;;6.50;70.04
19005;BME280;9635;52.078;8.648;2023-02-13T18:20:41;102457.28;;;6.48;69.93
19005;BME280;9635;52.078;8.648;2023-02-13T18:25:44;102462.09;;;6.36;69.86
19005;BME280;9635;52.078;8.648;2023-02-13T18:30:47;102460.41;;;6.32;70.01
19005;BME280;9635;52.078;8.648;2023-02-13T18:35:57;102458.03;;;6.23;70.30
19005;BME280;9635;52.078;8.648;2023-02-13T18:41:01;102451.84;;;6.23;70.61
19005;BME280;9635;52.078;8.648;2023-02-13T18:46:04;102451.78;;;6.24;70.86
19005;BME280;9635;52.078;8.648;2023-02-13T18:51:08;102460.06;;;6.15;71.11
19005;BME280;9635;52.078;8.648;2023-02-13T18:56:11;102460.19;;;6.10;71.04
19005;BME280;9635;52.078;8.648;2023-02-13T19:01:16;102452.63;;;5.95;71.11
19005;BME280;9635;52.078;8.648;2023-02-13T19:06:22;102456.44;;;5.86;72.24
19005;BME280;9635;52.078;8.648;2023-02-13T19:11:26;102456.59;;;5.80;72.08
19005;BME280;9635;52.078;8.648;2023-02-13T19:16:30;102459.28;;;5.80;71.95
19005;BME280;9635;52.078;8.648;2023-02-13T19:21:36;102458.44;;;5.78;71.99
19005;BME280;9635;52.078;8.648;2023-02-13T19:26:39;102458.50;;;5.77;72.44
19005;BME280;9635;52.078;8.648;2023-02-13T19:31:42;102456.13;;;5.66;72.29
19005;BME280;9635;52.078;8.648;2023-02-13T19:36:47;102452.16;;;5.48;72.23
19005;BME280;9635;52.078;8.648;2023-02-13T19:41:50;102457.72;;;5.40;72.53
19005;BME280;9635;52.078;8.648;2023-02-13T19:46:52;102459.38;;;5.43;72.53
19005;BME280;9635;52.078;8.648;2023-02-13T19:51:56;102456.97;;;5.34;72.75
19005;BME280;9635;52.078;8.648;2023-02-13T19:56:59;102449.06;;;5.31;72.98
19005;BME280;9635;52.078;8.648;2023-02-13T20:02:08;102455.44;;;5.25;72.80
19005;BME280;9635;52.078;8.648;2023-02-13T20:07:16;102451.75;;;5.29;73.07
19005;BME280;9635;52.078;8.648;2023-02-13T20:12:18;102440.28;;;5.27;73.17
19005;BME280;9635;52.078;8.648;2023-02-13T20:17:21;102442.28;;;5.19;72.91
19005;BME280;9635;52.078;8.648;2023-02-13T20:22:25;102451.56;;;5.02;72.79
19005;BME280;9635;52.078;8.648;2023-02-13T20:27:28;102433.88;;;4.98;73.03
19005;BME280;9635;52.078;8.648;2023-02-13T20:32:31;102448.94;;;5.01;73.24
19005;BME280;9635;52.078;8.648;2023-02-13T20:37:36;102451.59;;;5.01;73.28
19005;BME280;9635;52.078;8.648;2023-02-13T20:42:38;102447.31;;;4.94;73.21
19005;BME280;9635;52.078;8.648;2023-02-13T20:47:41;102447.53;;;4.84;73.07
19005;BME280;9635;52.078;8.648;2023-02-13T20:52:45;102437.03;;;4.78;73.28
19005;BME280;9635;52.078;8.648;2023-02-13T20:57:48;102431.94;;;4.68;73.20
19005;BME280;9635;52.078;8.648;2023-02-13T21:02:51;102430.28;;;4.64;73.48
19005;BME280;9635;52.078;8.648;2023-02-13T21:07:55;102430.25;;;4.65;73.51
19005;BME280;9635;52.078;8.648;2023-02-13T21:12:58;102427.66;;;4.60;73.67
19005;BME280;9635;52.078;8.648;2023-02-13T21:18:00;102429.47;;;4.60;73.83
19005;BME280;9635;52.078;8.648;2023-02-13T21:23:05;102434.91;;;4.55;73.89
19005;BME280;9635;52.078;8.648;2023-02-13T21:28:08;102431.50;;;4.49;74.08
19005;BME280;9635;52.078;8.648;2023-02-13T21:33:11;102433.38;;;4.45;74.12
19005;BME280;9635;52.078;8.648;2023-02-13T21:38:15;102432.38;;;4.49;74.16
19005;BME280;9635;52.078;8.648;2023-02-13T21:43:20;102440.59;;;4.38;74.02
19005;BME280;9635;52.078;8.648;2023-02-13T21:48:23;102432.75;;;4.34;74.27
19005;BME280;9635;52.078;8.648;2023-02-13T21:53:29;102431.81;;;4.35;74.61
19005;BME280;9635;52.078;8.648;2023-02-13T21:58:32;102442.53;;;4.32;74.83
19005;BME280;9635;52.078;8.648;2023-02-13T22:03:35;102446.13;;;4.29;74.57
19005;BME280;9635;52.078;8.648;2023-02-13T22:08:39;102440.97;;;4.23;74.72
19005;BME280;9635;52.078;8.648;2023-02-13T22:13:42;102433.75;;;4.28;74.98
19005;BME280;9635;52.078;8.648;2023-02-13T22:18:45;102446.06;;;4.32;75.11
19005;BME280;9635;52.078;8.648;2023-02-13T22:23:50;102442.78;;;4.21;74.74
19005;BME280;9635;52.078;8.648;2023-02-13T22:28:57;102447.38;;;4.13;74.31
19005;BME280;9635;52.078;8.648;2023-02-13T22:34:00;102438.69;;;4.05;74.05
19005;BME280;9635;52.078;8.648;2023-02-13T22:39:08;102438.91;;;3.94;73.65
19005;BME280;9635;52.078;8.648;2023-02-13T22:44:11;102437.38;;;3.82;73.69
19005;BME280;9635;52.078;8.648;2023-02-13T22:49:13;102433.94;;;3.77;74.26
19005;BME280;9635;52.078;8.648;2023-02-13T22:54:18;102432.19;;;3.76;73.99
19005;BME280;9635;52.078;8.648;2023-02-13T22:59:20;102437.59;;;3.71;74.18
19005;BME280;9635;52.078;8.648;2023-02-13T23:04:23;102433.16;;;3.72;74.53
19005;BME280;9635;52.078;8.648;2023-02-13T23:09:27;102429.03;;;3.56;74.22
19005;BME280;9635;52.078;8.648;2023-02-13T23:14:30;102438.03;;;3.48;74.60
19005;BME280;9635;52.078;8.648;2023-02-13T23:19:33;102437.06;;;3.54;74.94
19005;BME280;9635;52.078;8.648;2023-02-13T23:24:37;102427.28;;;3.55;74.78
19005;BME280;9635;52.078;8.648;2023-02-13T23:29:40;102429.16;;;3.48;73.89
19005;BME280;9635;52.078;8.648;2023-02-13T23:34:43;102425.94;;;3.32;73.42
19005;BME280;9635;52.078;8.648;2023-02-13T23:39:47;102427.88;;;3.21;73.41
19005;BME280;9635;52.078;8.648;2023-02-13T23:44:50;102425.41;;;3.12;73.27
19005;BME280;9635;52.078;8.648;2023-02-13T23:49:53;102427.19;;;3.10;73.21
19005;BME280;9635;52.078;8.648;2023-02-13T23:54:57;102434.47;;;3.00;72.64
